Terminal Aerodrome Forecast
Issued by NWS

Home | Current Version | Previous Version | Text Only | Print | Product List | Glossary On
Versions: 1 2 3 4 5 6 7 8 9 10 11 12 13 14 15 16 17 18 19 20 21 22 23 24 25
000
FTUS43 KDLH 240100 AAA
TAFHYR
TAF AMD
KHYR 240106Z 2401/2424 15008KT P6SM OVC070
      TEMPO 2402/2404 6SM -RA OVC050
     FM240400 15007KT 6SM -RA SCT025 OVC040
     FM240800 14007KT 5SM -RA BR OVC025
     FM241500 11010KT 3SM -RA BR OVC009=

USA.gov is the U.S. government's official web portal to all federal, state and local government web resources and services.